sensor_id;sensor_type;location;lat;lon;timestamp;P1;durP1;ratioP1;P2;durP2;ratioP2
21917;SDS011;11123;49.882;8.662;2022-08-11T00:02:23;6.85;;;2.20;;
21917;SDS011;11123;49.882;8.662;2022-08-11T00:04:56;6.15;;;2.47;;
21917;SDS011;11123;49.882;8.662;2022-08-11T00:07:28;5.55;;;2.15;;
21917;SDS011;11123;49.882;8.662;2022-08-11T00:09:57;3.92;;;2.20;;
21917;SDS011;11123;49.882;8.662;2022-08-11T00:12:27;6.88;;;2.55;;
21917;SDS011;11123;49.882;8.662;2022-08-11T00:14:57;10.90;;;2.28;;
21917;SDS011;11123;49.882;8.662;2022-08-11T00:17:28;4.93;;;2.25;;
21917;SDS011;11123;49.882;8.662;2022-08-11T00:20:06;4.30;;;2.03;;
21917;SDS011;11123;49.882;8.662;2022-08-11T00:22:42;3.90;;;2.30;;
21917;SDS011;11123;49.882;8.662;2022-08-11T00:25:13;5.07;;;2.20;;
21917;SDS011;11123;49.882;8.662;2022-08-11T00:27:43;4.65;;;2.25;;
21917;SDS011;11123;49.882;8.662;2022-08-11T00:30:13;5.07;;;1.95;;
21917;SDS011;11123;49.882;8.662;2022-08-11T00:32:43;6.20;;;2.70;;
21917;SDS011;11123;49.882;8.662;2022-08-11T00:35:23;5.93;;;2.67;;
21917;SDS011;11123;49.882;8.662;2022-08-11T00:38:16;8.73;;;2.70;;
21917;SDS011;11123;49.882;8.662;2022-08-11T00:40:52;7.20;;;2.35;;
21917;SDS011;11123;49.882;8.662;2022-08-11T00:43:31;5.75;;;2.55;;
21917;SDS011;11123;49.882;8.662;2022-08-11T00:46:18;3.63;;;2.20;;
21917;SDS011;11123;49.882;8.662;2022-08-11T00:48:59;5.65;;;2.15;;
21917;SDS011;11123;49.882;8.662;2022-08-11T00:51:43;6.10;;;2.40;;
21917;SDS011;11123;49.882;8.662;2022-08-11T00:54:42;4.75;;;2.28;;
21917;SDS011;11123;49.882;8.662;2022-08-11T01:01:11;3.75;;;1.88;;
21917;SDS011;11123;49.882;8.662;2022-08-11T01:04:15;5.82;;;2.03;;
21917;SDS011;11123;49.882;8.662;2022-08-11T01:07:12;3.78;;;2.30;;
21917;SDS011;11123;49.882;8.662;2022-08-11T01:10:42;9.52;;;2.25;;
21917;SDS011;11123;49.882;8.662;2022-08-11T01:13:28;4.55;;;2.25;;
21917;SDS011;11123;49.882;8.662;2022-08-11T01:16:24;4.65;;;2.10;;
21917;SDS011;11123;49.882;8.662;2022-08-11T01:22:50;4.35;;;2.25;;
21917;SDS011;11123;49.882;8.662;2022-08-11T01:25:56;5.68;;;2.50;;
21917;SDS011;11123;49.882;8.662;2022-08-11T01:35:23;3.38;;;2.20;;
21917;SDS011;11123;49.882;8.662;2022-08-11T01:38:22;3.42;;;2.20;;
21917;SDS011;11123;49.882;8.662;2022-08-11T01:44:34;5.65;;;2.15;;
21917;SDS011;11123;49.882;8.662;2022-08-11T01:47:30;4.95;;;2.25;;
21917;SDS011;11123;49.882;8.662;2022-08-11T01:50:25;4.10;;;2.35;;
21917;SDS011;11123;49.882;8.662;2022-08-11T01:53:08;5.90;;;2.75;;
21917;SDS011;11123;49.882;8.662;2022-08-11T01:55:46;3.55;;;2.05;;
21917;SDS011;11123;49.882;8.662;2022-08-11T01:58:25;3.60;;;2.28;;
21917;SDS011;11123;49.882;8.662;2022-08-11T02:01:12;6.38;;;2.50;;
21917;SDS011;11123;49.882;8.662;2022-08-11T02:03:55;6.80;;;2.30;;
21917;SDS011;11123;49.882;8.662;2022-08-11T02:06:34;3.22;;;2.10;;
21917;SDS011;11123;49.882;8.662;2022-08-11T02:09:25;4.60;;;2.15;;
21917;SDS011;11123;49.882;8.662;2022-08-11T02:12:17;4.35;;;2.22;;
21917;SDS011;11123;49.882;8.662;2022-08-11T02:15:20;4.82;;;2.22;;
21917;SDS011;11123;49.882;8.662;2022-08-11T02:17:58;6.88;;;2.38;;
21917;SDS011;11123;49.882;8.662;2022-08-11T02:20:34;4.25;;;2.33;;
21917;SDS011;11123;49.882;8.662;2022-08-11T02:23:28;5.60;;;2.55;;
21917;SDS011;11123;49.882;8.662;2022-08-11T02:26:28;5.10;;;2.22;;
21917;SDS011;11123;49.882;8.662;2022-08-11T02:29:04;4.40;;;2.67;;
21917;SDS011;11123;49.882;8.662;2022-08-11T02:31:41;4.85;;;2.03;;
21917;SDS011;11123;49.882;8.662;2022-08-11T02:34:55;4.50;;;2.30;;
21917;SDS011;11123;49.882;8.662;2022-08-11T02:37:33;3.97;;;2.08;;
21917;SDS011;11123;49.882;8.662;2022-08-11T02:40:16;5.85;;;2.40;;
21917;SDS011;11123;49.882;8.662;2022-08-11T02:42:56;4.18;;;2.25;;
21917;SDS011;11123;49.882;8.662;2022-08-11T02:45:53;3.42;;;2.28;;
21917;SDS011;11123;49.882;8.662;2022-08-11T02:48:34;5.53;;;2.40;;
21917;SDS011;11123;49.882;8.662;2022-08-11T02:51:26;6.35;;;2.20;;
21917;SDS011;11123;49.882;8.662;2022-08-11T02:54:04;5.50;;;2.33;;
21917;SDS011;11123;49.882;8.662;2022-08-11T02:56:41;4.75;;;2.10;;
21917;SDS011;11123;49.882;8.662;2022-08-11T02:59:23;4.45;;;2.55;;
21917;SDS011;11123;49.882;8.662;2022-08-11T03:02:16;4.18;;;2.20;;
21917;SDS011;11123;49.882;8.662;2022-08-11T03:05:02;3.83;;;2.15;;
21917;SDS011;11123;49.882;8.662;2022-08-11T03:07:39;5.00;;;2.33;;
21917;SDS011;11123;49.882;8.662;2022-08-11T03:10:17;4.05;;;2.40;;
21917;SDS011;11123;49.882;8.662;2022-08-11T03:12:51;4.97;;;2.20;;
21917;SDS011;11123;49.882;8.662;2022-08-11T03:15:45;4.35;;;2.20;;
21917;SDS011;11123;49.882;8.662;2022-08-11T03:18:36;4.25;;;2.30;;
21917;SDS011;11123;49.882;8.662;2022-08-11T03:21:15;4.10;;;2.50;;
21917;SDS011;11123;49.882;8.662;2022-08-11T03:23:49;9.30;;;3.20;;
21917;SDS011;11123;49.882;8.662;2022-08-11T03:26:28;7.55;;;2.33;;
21917;SDS011;11123;49.882;8.662;2022-08-11T03:29:03;3.95;;;2.20;;
21917;SDS011;11123;49.882;8.662;2022-08-11T03:31:35;4.68;;;2.08;;
21917;SDS011;11123;49.882;8.662;2022-08-11T03:34:13;4.63;;;2.13;;
21917;SDS011;11123;49.882;8.662;2022-08-11T03:36:58;3.55;;;2.20;;
21917;SDS011;11123;49.882;8.662;2022-08-11T03:39:53;5.22;;;2.58;;
21917;SDS011;11123;49.882;8.662;2022-08-11T03:42:32;3.67;;;2.17;;
21917;SDS011;11123;49.882;8.662;2022-08-11T03:45:22;5.97;;;2.20;;
21917;SDS011;11123;49.882;8.662;2022-08-11T03:47:59;4.32;;;2.17;;
21917;SDS011;11123;49.882;8.662;2022-08-11T03:50:53;5.32;;;2.80;;
21917;SDS011;11123;49.882;8.662;2022-08-11T03:53:43;6.78;;;2.20;;
21917;SDS011;11123;49.882;8.662;2022-08-11T03:56:39;4.50;;;2.50;;
21917;SDS011;11123;49.882;8.662;2022-08-11T03:59:48;4.97;;;2.40;;
21917;SDS011;11123;49.882;8.662;2022-08-11T04:05:56;4.40;;;2.50;;
21917;SDS011;11123;49.882;8.662;2022-08-11T04:15:13;7.63;;;5.18;;
21917;SDS011;11123;49.882;8.662;2022-08-11T04:18:24;8.00;;;5.40;;
21917;SDS011;11123;49.882;8.662;2022-08-11T04:21:20;11.07;;;6.25;;
21917;SDS011;11123;49.882;8.662;2022-08-11T04:24:18;9.27;;;6.13;;
21917;SDS011;11123;49.882;8.662;2022-08-11T04:30:06;10.48;;;6.22;;
21917;SDS011;11123;49.882;8.662;2022-08-11T04:32:47;9.48;;;6.80;;
21917;SDS011;11123;49.882;8.662;2022-08-11T04:35:38;9.43;;;6.35;;
21917;SDS011;11123;49.882;8.662;2022-08-11T04:38:37;10.40;;;6.32;;
21917;SDS011;11123;49.882;8.662;2022-08-11T04:41:30;8.65;;;6.28;;
21917;SDS011;11123;49.882;8.662;2022-08-11T04:48:04;8.45;;;5.65;;
21917;SDS011;11123;49.882;8.662;2022-08-11T04:51:09;8.82;;;5.82;;
21917;SDS011;11123;49.882;8.662;2022-08-11T04:54:20;8.88;;;4.50;;
21917;SDS011;11123;49.882;8.662;2022-08-11T04:57:17;7.13;;;4.93;;
21917;SDS011;11123;49.882;8.662;2022-08-11T05:00:07;7.70;;;4.40;;
21917;SDS011;11123;49.882;8.662;2022-08-11T05:03:22;7.55;;;4.18;;
21917;SDS011;11123;49.882;8.662;2022-08-11T05:09:21;5.60;;;3.72;;
21917;SDS011;11123;49.882;8.662;2022-08-11T05:12:17;6.93;;;3.90;;
21917;SDS011;11123;49.882;8.662;2022-08-11T05:14:56;8.48;;;3.38;;
21917;SDS011;11123;49.882;8.662;2022-08-11T05:17:45;7.50;;;3.67;;
21917;SDS011;11123;49.882;8.662;2022-08-11T05:20:42;7.22;;;3.30;;
21917;SDS011;11123;49.882;8.662;2022-08-11T05:23:31;6.28;;;3.50;;
21917;SDS011;11123;49.882;8.662;2022-08-11T05:26:21;5.57;;;3.33;;
21917;SDS011;11123;49.882;8.662;2022-08-11T05:29:24;7.90;;;3.30;;
21917;SDS011;11123;49.882;8.662;2022-08-11T05:32:14;6.47;;;3.22;;
21917;SDS011;11123;49.882;8.662;2022-08-11T05:35:02;7.65;;;3.15;;
21917;SDS011;11123;49.882;8.662;2022-08-11T05:37:37;6.15;;;3.38;;
21917;SDS011;11123;49.882;8.662;2022-08-11T05:40:23;10.50;;;3.45;;
21917;SDS011;11123;49.882;8.662;2022-08-11T05:43:20;8.88;;;3.03;;
21917;SDS011;11123;49.882;8.662;2022-08-11T05:46:27;7.25;;;2.70;;
21917;SDS011;11123;49.882;8.662;2022-08-11T05:49:14;5.53;;;2.80;;
21917;SDS011;11123;49.882;8.662;2022-08-11T05:51:59;4.88;;;2.92;;
21917;SDS011;11123;49.882;8.662;2022-08-11T05:55:07;6.15;;;2.60;;
21917;SDS011;11123;49.882;8.662;2022-08-11T05:57:55;6.15;;;2.70;;
21917;SDS011;11123;49.882;8.662;2022-08-11T06:00:27;6.25;;;2.83;;
21917;SDS011;11123;49.882;8.662;2022-08-11T06:02:57;6.30;;;3.38;;
21917;SDS011;11123;49.882;8.662;2022-08-11T06:05:33;7.20;;;2.95;;
21917;SDS011;11123;49.882;8.662;2022-08-11T06:08:09;7.55;;;2.88;;
21917;SDS011;11123;49.882;8.662;2022-08-11T06:10:39;5.75;;;2.53;;
21917;SDS011;11123;49.882;8.662;2022-08-11T06:13:09;7.85;;;3.10;;
21917;SDS011;11123;49.882;8.662;2022-08-11T06:15:46;9.60;;;2.50;;
21917;SDS011;11123;49.882;8.662;2022-08-11T06:18:16;5.00;;;2.55;;
21917;SDS011;11123;49.882;8.662;2022-08-11T06:20:46;6.88;;;2.97;;
21917;SDS011;11123;49.882;8.662;2022-08-11T06:23:16;8.40;;;2.67;;
21917;SDS011;11123;49.882;8.662;2022-08-11T06:25:45;4.78;;;2.47;;
21917;SDS011;11123;49.882;8.662;2022-08-11T06:28:15;5.18;;;2.38;;
21917;SDS011;11123;49.882;8.662;2022-08-11T06:30:48;4.32;;;2.53;;
21917;SDS011;11123;49.882;8.662;2022-08-11T06:33:17;7.10;;;2.53;;
21917;SDS011;11123;49.882;8.662;2022-08-11T06:35:59;5.88;;;2.70;;
21917;SDS011;11123;49.882;8.662;2022-08-11T06:38:40;6.50;;;2.60;;
21917;SDS011;11123;49.882;8.662;2022-08-11T06:41:20;5.43;;;2.63;;
21917;SDS011;11123;49.882;8.662;2022-08-11T06:44:04;6.88;;;2.63;;
21917;SDS011;11123;49.882;8.662;2022-08-11T06:46:44;5.30;;;2.50;;
21917;SDS011;11123;49.882;8.662;2022-08-11T06:49:17;7.05;;;2.63;;
21917;SDS011;11123;49.882;8.662;2022-08-11T06:52:06;4.95;;;2.22;;
21917;SDS011;11123;49.882;8.662;2022-08-11T06:54:59;3.88;;;2.42;;
21917;SDS011;11123;49.882;8.662;2022-08-11T06:57:57;9.82;;;3.03;;
21917;SDS011;11123;49.882;8.662;2022-08-11T07:00:43;10.10;;;2.58;;
21917;SDS011;11123;49.882;8.662;2022-08-11T07:03:16;6.78;;;2.30;;
21917;SDS011;11123;49.882;8.662;2022-08-11T07:05:47;3.92;;;2.22;;
21917;SDS011;11123;49.882;8.662;2022-08-11T07:11:54;7.10;;;2.35;;
21917;SDS011;11123;49.882;8.662;2022-08-11T07:15:00;5.45;;;2.50;;
21917;SDS011;11123;49.882;8.662;2022-08-11T07:18:11;4.07;;;2.08;;
21917;SDS011;11123;49.882;8.662;2022-08-11T07:21:15;4.72;;;2.40;;
21917;SDS011;11123;49.882;8.662;2022-08-11T07:24:27;8.05;;;2.55;;
21917;SDS011;11123;49.882;8.662;2022-08-11T07:27:30;6.07;;;2.25;;
21917;SDS011;11123;49.882;8.662;2022-08-11T07:30:21;4.35;;;2.40;;
21917;SDS011;11123;49.882;8.662;2022-08-11T07:32:52;4.40;;;2.40;;
21917;SDS011;11123;49.882;8.662;2022-08-11T07:35:23;4.28;;;2.40;;
21917;SDS011;11123;49.882;8.662;2022-08-11T07:37:59;5.13;;;2.17;;
21917;SDS011;11123;49.882;8.662;2022-08-11T07:40:33;6.35;;;2.10;;
21917;SDS011;11123;49.882;8.662;2022-08-11T07:43:02;4.57;;;2.10;;
21917;SDS011;11123;49.882;8.662;2022-08-11T07:45:32;4.95;;;2.28;;
21917;SDS011;11123;49.882;8.662;2022-08-11T07:48:19;6.15;;;2.22;;
21917;SDS011;11123;49.882;8.662;2022-08-11T07:51:05;6.60;;;2.60;;
21917;SDS011;11123;49.882;8.662;2022-08-11T07:53:52;5.00;;;2.22;;
21917;SDS011;11123;49.882;8.662;2022-08-11T07:56:33;8.68;;;2.40;;
21917;SDS011;11123;49.882;8.662;2022-08-11T07:59:23;4.28;;;2.17;;
21917;SDS011;11123;49.882;8.662;2022-08-11T08:02:37;8.27;;;2.40;;
21917;SDS011;11123;49.882;8.662;2022-08-11T08:05:24;5.10;;;2.00;;
21917;SDS011;11123;49.882;8.662;2022-08-11T08:08:10;3.63;;;2.15;;
21917;SDS011;11123;49.882;8.662;2022-08-11T08:11:01;3.95;;;2.22;;
21917;SDS011;11123;49.882;8.662;2022-08-11T08:13:53;5.32;;;2.33;;
21917;SDS011;11123;49.882;8.662;2022-08-11T08:16:39;6.80;;;2.70;;
21917;SDS011;11123;49.882;8.662;2022-08-11T08:19:26;4.95;;;2.00;;
21917;SDS011;11123;49.882;8.662;2022-08-11T08:21:55;7.00;;;2.60;;
21917;SDS011;11123;49.882;8.662;2022-08-11T08:24:37;4.03;;;2.20;;
21917;SDS011;11123;49.882;8.662;2022-08-11T08:27:08;7.57;;;2.30;;
21917;SDS011;11123;49.882;8.662;2022-08-11T08:29:39;5.25;;;2.40;;
21917;SDS011;11123;49.882;8.662;2022-08-11T08:32:26;5.97;;;2.13;;
21917;SDS011;11123;49.882;8.662;2022-08-11T08:34:57;6.53;;;2.40;;
21917;SDS011;11123;49.882;8.662;2022-08-11T08:37:28;6.18;;;2.08;;
21917;SDS011;11123;49.882;8.662;2022-08-11T08:40:13;7.03;;;2.28;;
21917;SDS011;11123;49.882;8.662;2022-08-11T08:42:45;6.85;;;2.40;;
21917;SDS011;11123;49.882;8.662;2022-08-11T08:45:20;6.60;;;2.05;;
21917;SDS011;11123;49.882;8.662;2022-08-11T08:47:51;3.38;;;2.22;;
21917;SDS011;11123;49.882;8.662;2022-08-11T08:50:32;5.28;;;2.00;;
21917;SDS011;11123;49.882;8.662;2022-08-11T08:53:20;4.78;;;2.28;;
21917;SDS011;11123;49.882;8.662;2022-08-11T08:55:54;4.18;;;2.17;;
21917;SDS011;11123;49.882;8.662;2022-08-11T08:58:25;7.47;;;1.92;;
21917;SDS011;11123;49.882;8.662;2022-08-11T09:00:55;4.18;;;2.15;;
21917;SDS011;11123;49.882;8.662;2022-08-11T09:03:26;4.07;;;1.83;;
21917;SDS011;11123;49.882;8.662;2022-08-11T09:06:15;5.18;;;1.95;;
21917;SDS011;11123;49.882;8.662;2022-08-11T09:08:43;3.42;;;2.17;;
21917;SDS011;11123;49.882;8.662;2022-08-11T09:11:17;3.03;;;1.90;;
21917;SDS011;11123;49.882;8.662;2022-08-11T09:14:09;3.50;;;1.90;;
21917;SDS011;11123;49.882;8.662;2022-08-11T09:16:40;3.58;;;1.70;;
21917;SDS011;11123;49.882;8.662;2022-08-11T09:19:12;7.05;;;2.08;;
21917;SDS011;11123;49.882;8.662;2022-08-11T09:21:44;3.72;;;2.03;;
21917;SDS011;11123;49.882;8.662;2022-08-11T09:24:37;5.03;;;1.73;;
21917;SDS011;11123;49.882;8.662;2022-08-11T09:27:23;5.47;;;2.00;;
21917;SDS011;11123;49.882;8.662;2022-08-11T09:29:54;4.70;;;2.00;;
21917;SDS011;11123;49.882;8.662;2022-08-11T09:32:28;5.93;;;1.63;;
21917;SDS011;11123;49.882;8.662;2022-08-11T09:34:58;2.67;;;1.77;;
21917;SDS011;11123;49.882;8.662;2022-08-11T09:37:30;6.20;;;1.98;;
21917;SDS011;11123;49.882;8.662;2022-08-11T09:40:21;3.22;;;1.75;;
21917;SDS011;11123;49.882;8.662;2022-08-11T09:43:01;2.78;;;1.60;;
21917;SDS011;11123;49.882;8.662;2022-08-11T09:45:56;4.03;;;1.55;;
21917;SDS011;11123;49.882;8.662;2022-08-11T09:48:26;3.60;;;1.70;;
21917;SDS011;11123;49.882;8.662;2022-08-11T09:50:59;4.22;;;1.60;;
21917;SDS011;11123;49.882;8.662;2022-08-11T09:53:29;3.28;;;1.85;;
21917;SDS011;11123;49.882;8.662;2022-08-11T09:56:03;4.57;;;1.80;;
21917;SDS011;11123;49.882;8.662;2022-08-11T09:58:47;4.97;;;1.80;;
21917;SDS011;11123;49.882;8.662;2022-08-11T10:01:19;3.70;;;2.13;;
21917;SDS011;11123;49.882;8.662;2022-08-11T10:03:56;4.65;;;2.17;;
21917;SDS011;11123;49.882;8.662;2022-08-11T10:06:27;3.78;;;2.03;;
21917;SDS011;11123;49.882;8.662;2022-08-11T10:09:21;3.78;;;2.08;;
21917;SDS011;11123;49.882;8.662;2022-08-11T10:11:52;5.60;;;2.05;;
21917;SDS011;11123;49.882;8.662;2022-08-11T10:14:25;5.10;;;1.75;;
21917;SDS011;11123;49.882;8.662;2022-08-11T10:17:15;2.78;;;1.88;;
21917;SDS011;11123;49.882;8.662;2022-08-11T10:19:47;3.35;;;1.80;;
21917;SDS011;11123;49.882;8.662;2022-08-11T10:22:31;3.28;;;1.83;;
21917;SDS011;11123;49.882;8.662;2022-08-11T10:25:19;5.63;;;1.70;;
21917;SDS011;11123;49.882;8.662;2022-08-11T10:28:06;4.75;;;1.52;;
21917;SDS011;11123;49.882;8.662;2022-08-11T10:30:56;4.00;;;1.70;;
21917;SDS011;11123;49.882;8.662;2022-08-11T10:37:21;5.82;;;1.92;;
21917;SDS011;11123;49.882;8.662;2022-08-11T10:40:12;5.93;;;1.50;;
21917;SDS011;11123;49.882;8.662;2022-08-11T10:42:44;4.47;;;1.80;;
21917;SDS011;11123;49.882;8.662;2022-08-11T10:45:33;3.83;;;1.90;;
21917;SDS011;11123;49.882;8.662;2022-08-11T10:48:21;3.70;;;1.70;;
21917;SDS011;11123;49.882;8.662;2022-08-11T10:50:53;3.97;;;1.70;;
21917;SDS011;11123;49.882;8.662;2022-08-11T10:53:41;3.53;;;1.60;;
21917;SDS011;11123;49.882;8.662;2022-08-11T10:56:29;4.25;;;1.80;;
21917;SDS011;11123;49.882;8.662;2022-08-11T10:59:19;3.20;;;1.90;;
21917;SDS011;11123;49.882;8.662;2022-08-11T11:01:48;3.28;;;1.90;;
21917;SDS011;11123;49.882;8.662;2022-08-11T11:04:20;6.20;;;1.95;;
21917;SDS011;11123;49.882;8.662;2022-08-11T11:07:02;4.25;;;2.08;;
21917;SDS011;11123;49.882;8.662;2022-08-11T11:09:38;3.03;;;2.00;;
21917;SDS011;11123;49.882;8.662;2022-08-11T11:12:12;3.92;;;1.95;;
21917;SDS011;11123;49.882;8.662;2022-08-11T11:15:03;4.57;;;2.42;;
21917;SDS011;11123;49.882;8.662;2022-08-11T11:17:51;3.67;;;1.92;;
21917;SDS011;11123;49.882;8.662;2022-08-11T11:20:28;4.38;;;2.20;;
21917;SDS011;11123;49.882;8.662;2022-08-11T11:23:11;4.25;;;1.95;;
21917;SDS011;11123;49.882;8.662;2022-08-11T11:32:17;5.50;;;2.15;;
21917;SDS011;11123;49.882;8.662;2022-08-11T11:35:04;3.97;;;2.00;;
21917;SDS011;11123;49.882;8.662;2022-08-11T11:37:56;4.00;;;2.10;;
21917;SDS011;11123;49.882;8.662;2022-08-11T11:40:33;5.07;;;2.33;;
21917;SDS011;11123;49.882;8.662;2022-08-11T11:43:02;4.38;;;2.22;;
21917;SDS011;11123;49.882;8.662;2022-08-11T11:45:32;4.72;;;2.05;;
21917;SDS011;11123;49.882;8.662;2022-08-11T11:48:05;5.97;;;2.20;;
21917;SDS011;11123;49.882;8.662;2022-08-11T11:50:35;4.95;;;2.20;;
21917;SDS011;11123;49.882;8.662;2022-08-11T11:53:04;3.92;;;2.10;;
21917;SDS011;11123;49.882;8.662;2022-08-11T11:55:35;4.45;;;2.00;;
21917;SDS011;11123;49.882;8.662;2022-08-11T11:58:04;3.83;;;2.03;;
21917;SDS011;11123;49.882;8.662;2022-08-11T12:00:57;4.55;;;1.90;;
21917;SDS011;11123;49.882;8.662;2022-08-11T12:03:48;6.68;;;2.38;;
21917;SDS011;11123;49.882;8.662;2022-08-11T12:06:20;6.47;;;2.28;;
21917;SDS011;11123;49.882;8.662;2022-08-11T12:08:51;3.92;;;2.22;;
21917;SDS011;11123;49.882;8.662;2022-08-11T12:11:25;6.50;;;2.25;;
21917;SDS011;11123;49.882;8.662;2022-08-11T12:14:18;5.40;;;2.13;;
21917;SDS011;11123;49.882;8.662;2022-08-11T12:16:47;3.72;;;2.05;;
21917;SDS011;11123;49.882;8.662;2022-08-11T12:19:17;5.97;;;2.10;;
21917;SDS011;11123;49.882;8.662;2022-08-11T12:21:49;6.10;;;2.30;;
21917;SDS011;11123;49.882;8.662;2022-08-11T12:24:36;6.25;;;2.40;;
21917;SDS011;11123;49.882;8.662;2022-08-11T12:27:24;5.57;;;2.08;;
21917;SDS011;11123;49.882;8.662;2022-08-11T12:29:55;5.00;;;2.20;;
21917;SDS011;11123;49.882;8.662;2022-08-11T12:32:26;3.78;;;2.00;;
21917;SDS011;11123;49.882;8.662;2022-08-11T12:34:57;3.60;;;1.80;;
21917;SDS011;11123;49.882;8.662;2022-08-11T12:37:28;5.38;;;2.00;;
21917;SDS011;11123;49.882;8.662;2022-08-11T12:40:00;4.93;;;2.15;;
21917;SDS011;11123;49.882;8.662;2022-08-11T12:43:12;3.55;;;2.00;;
21917;SDS011;11123;49.882;8.662;2022-08-11T12:46:05;4.32;;;2.35;;
21917;SDS011;11123;49.882;8.662;2022-08-11T12:48:36;5.28;;;2.13;;
21917;SDS011;11123;49.882;8.662;2022-08-11T12:51:30;3.90;;;1.95;;
21917;SDS011;11123;49.882;8.662;2022-08-11T12:54:39;5.80;;;2.20;;
21917;SDS011;11123;49.882;8.662;2022-08-11T12:57:13;3.15;;;2.00;;
21917;SDS011;11123;49.882;8.662;2022-08-11T13:00:05;5.28;;;2.00;;
21917;SDS011;11123;49.882;8.662;2022-08-11T13:02:54;4.05;;;2.10;;
21917;SDS011;11123;49.882;8.662;2022-08-11T13:05:51;3.92;;;2.13;;
21917;SDS011;11123;49.882;8.662;2022-08-11T13:08:22;6.03;;;2.00;;
21917;SDS011;11123;49.882;8.662;2022-08-11T13:10:53;4.07;;;1.92;;
21917;SDS011;11123;49.882;8.662;2022-08-11T13:13:42;5.55;;;2.05;;
21917;SDS011;11123;49.882;8.662;2022-08-11T13:16:24;3.65;;;1.70;;
21917;SDS011;11123;49.882;8.662;2022-08-11T13:18:55;5.03;;;2.00;;
21917;SDS011;11123;49.882;8.662;2022-08-11T13:21:27;3.13;;;1.92;;
21917;SDS011;11123;49.882;8.662;2022-08-11T13:23:55;5.43;;;1.83;;
21917;SDS011;11123;49.882;8.662;2022-08-11T13:26:31;3.45;;;1.90;;
21917;SDS011;11123;49.882;8.662;2022-08-11T13:29:15;3.80;;;2.10;;
21917;SDS011;11123;49.882;8.662;2022-08-11T13:31:47;4.30;;;2.15;;
21917;SDS011;11123;49.882;8.662;2022-08-11T13:34:18;3.38;;;2.05;;
21917;SDS011;11123;49.882;8.662;2022-08-11T13:36:48;5.10;;;2.00;;
21917;SDS011;11123;49.882;8.662;2022-08-11T13:39:18;5.10;;;2.40;;
21917;SDS011;11123;49.882;8.662;2022-08-11T13:41:50;5.15;;;2.22;;
21917;SDS011;11123;49.882;8.662;2022-08-11T13:44:20;6.65;;;2.05;;
21917;SDS011;11123;49.882;8.662;2022-08-11T13:46:56;4.55;;;2.28;;
21917;SDS011;11123;49.882;8.662;2022-08-11T13:49:27;4.43;;;1.90;;
21917;SDS011;11123;49.882;8.662;2022-08-11T13:51:57;4.95;;;1.73;;
21917;SDS011;11123;49.882;8.662;2022-08-11T13:54:27;5.05;;;1.73;;
21917;SDS011;11123;49.882;8.662;2022-08-11T13:56:59;7.32;;;2.00;;
21917;SDS011;11123;49.882;8.662;2022-08-11T13:59:35;4.82;;;2.10;;
21917;SDS011;11123;49.882;8.662;2022-08-11T14:02:20;3.78;;;1.70;;
21917;SDS011;11123;49.882;8.662;2022-08-11T14:04:57;13.25;;;2.08;;
21917;SDS011;11123;49.882;8.662;2022-08-11T14:07:31;3.47;;;1.85;;
21917;SDS011;11123;49.882;8.662;2022-08-11T14:10:02;4.55;;;1.60;;
21917;SDS011;11123;49.882;8.662;2022-08-11T14:12:34;5.50;;;1.80;;
21917;SDS011;11123;49.882;8.662;2022-08-11T14:15:21;4.72;;;1.65;;
21917;SDS011;11123;49.882;8.662;2022-08-11T14:17:55;4.85;;;2.20;;
21917;SDS011;11123;49.882;8.662;2022-08-11T14:20:30;4.13;;;1.73;;
21917;SDS011;11123;49.882;8.662;2022-08-11T14:23:22;5.65;;;1.80;;
21917;SDS011;11123;49.882;8.662;2022-08-11T14:25:53;4.75;;;2.00;;
21917;SDS011;11123;49.882;8.662;2022-08-11T14:28:40;5.55;;;1.85;;
21917;SDS011;11123;49.882;8.662;2022-08-11T14:31:11;5.60;;;1.73;;
21917;SDS011;11123;49.882;8.662;2022-08-11T14:33:43;3.05;;;1.77;;
21917;SDS011;11123;49.882;8.662;2022-08-11T14:36:28;3.22;;;1.60;;
21917;SDS011;11123;49.882;8.662;2022-08-11T14:39:01;3.13;;;1.60;;
21917;SDS011;11123;49.882;8.662;2022-08-11T14:41:32;3.85;;;1.90;;
21917;SDS011;11123;49.882;8.662;2022-08-11T14:44:39;5.00;;;2.00;;
21917;SDS011;11123;49.882;8.662;2022-08-11T14:47:42;4.75;;;1.60;;
21917;SDS011;11123;49.882;8.662;2022-08-11T14:50:16;2.78;;;1.40;;
21917;SDS011;11123;49.882;8.662;2022-08-11T14:52:49;3.17;;;1.63;;
21917;SDS011;11123;49.882;8.662;2022-08-11T14:55:21;4.45;;;1.70;;
21917;SDS011;11123;49.882;8.662;2022-08-11T14:58:11;3.45;;;1.70;;
21917;SDS011;11123;49.882;8.662;2022-08-11T15:00:42;4.20;;;1.70;;
21917;SDS011;11123;49.882;8.662;2022-08-11T15:03:12;3.08;;;1.65;;
21917;SDS011;11123;49.882;8.662;2022-08-11T15:05:43;5.18;;;1.88;;
21917;SDS011;11123;49.882;8.662;2022-08-11T15:08:24;3.30;;;1.50;;
21917;SDS011;11123;49.882;8.662;2022-08-11T15:11:09;3.03;;;1.75;;
21917;SDS011;11123;49.882;8.662;2022-08-11T15:13:54;3.75;;;1.58;;
21917;SDS011;11123;49.882;8.662;2022-08-11T15:16:23;3.10;;;1.60;;
21917;SDS011;11123;49.882;8.662;2022-08-11T15:19:10;3.78;;;1.98;;
21917;SDS011;11123;49.882;8.662;2022-08-11T15:21:43;6.43;;;1.65;;
21917;SDS011;11123;49.882;8.662;2022-08-11T15:24:29;5.13;;;1.80;;
21917;SDS011;11123;49.882;8.662;2022-08-11T15:26:59;4.75;;;1.60;;
21917;SDS011;11123;49.882;8.662;2022-08-11T15:29:48;3.83;;;1.80;;
21917;SDS011;11123;49.882;8.662;2022-08-11T15:32:46;2.80;;;1.50;;
21917;SDS011;11123;49.882;8.662;2022-08-11T15:35:34;3.17;;;1.83;;
21917;SDS011;11123;49.882;8.662;2022-08-11T15:38:25;4.75;;;1.67;;
21917;SDS011;11123;49.882;8.662;2022-08-11T15:41:01;2.85;;;1.52;;
21917;SDS011;11123;49.882;8.662;2022-08-11T15:43:51;3.75;;;1.60;;
21917;SDS011;11123;49.882;8.662;2022-08-11T15:46:40;3.95;;;1.70;;
21917;SDS011;11123;49.882;8.662;2022-08-11T15:49:11;5.82;;;1.70;;
21917;SDS011;11123;49.882;8.662;2022-08-11T15:51:48;5.75;;;1.90;;
21917;SDS011;11123;49.882;8.662;2022-08-11T15:54:29;3.97;;;1.77;;
21917;SDS011;11123;49.882;8.662;2022-08-11T15:57:00;4.32;;;1.80;;
21917;SDS011;11123;49.882;8.662;2022-08-11T15:59:31;7.32;;;1.70;;
21917;SDS011;11123;49.882;8.662;2022-08-11T16:02:19;3.67;;;1.70;;
21917;SDS011;11123;49.882;8.662;2022-08-11T16:05:10;4.20;;;1.83;;
21917;SDS011;11123;49.882;8.662;2022-08-11T16:08:08;2.67;;;1.60;;
21917;SDS011;11123;49.882;8.662;2022-08-11T16:10:42;4.63;;;1.90;;
21917;SDS011;11123;49.882;8.662;2022-08-11T16:13:13;2.67;;;1.70;;
21917;SDS011;11123;49.882;8.662;2022-08-11T16:16:00;3.33;;;1.70;;
21917;SDS011;11123;49.882;8.662;2022-08-11T16:18:45;3.80;;;1.90;;
21917;SDS011;11123;49.882;8.662;2022-08-11T16:21:18;5.43;;;2.25;;
21917;SDS011;11123;49.882;8.662;2022-08-11T16:24:05;5.72;;;1.77;;
21917;SDS011;11123;49.882;8.662;2022-08-11T16:26:57;6.50;;;2.40;;
21917;SDS011;11123;49.882;8.662;2022-08-11T16:29:39;4.82;;;1.90;;
21917;SDS011;11123;49.882;8.662;2022-08-11T16:32:11;4.57;;;1.90;;
21917;SDS011;11123;49.882;8.662;2022-08-11T16:34:49;5.55;;;2.00;;
21917;SDS011;11123;49.882;8.662;2022-08-11T16:37:39;3.22;;;1.80;;
21917;SDS011;11123;49.882;8.662;2022-08-11T16:40:25;5.72;;;2.08;;
21917;SDS011;11123;49.882;8.662;2022-08-11T16:42:58;2.97;;;1.60;;
21917;SDS011;11123;49.882;8.662;2022-08-11T16:45:53;4.40;;;2.08;;
21917;SDS011;11123;49.882;8.662;2022-08-11T16:48:40;5.88;;;1.90;;
21917;SDS011;11123;49.882;8.662;2022-08-11T16:51:11;4.30;;;1.88;;
21917;SDS011;11123;49.882;8.662;2022-08-11T16:53:45;3.30;;;1.90;;
21917;SDS011;11123;49.882;8.662;2022-08-11T16:56:33;2.97;;;1.75;;
21917;SDS011;11123;49.882;8.662;2022-08-11T16:59:06;3.33;;;1.75;;
21917;SDS011;11123;49.882;8.662;2022-08-11T17:01:44;6.50;;;1.85;;
21917;SDS011;11123;49.882;8.662;2022-08-11T17:04:27;4.22;;;1.65;;
21917;SDS011;11123;49.882;8.662;2022-08-11T17:07:27;3.60;;;1.92;;
21917;SDS011;11123;49.882;8.662;2022-08-11T17:10:16;6.63;;;2.00;;